Time;durP1;ratioP1;P1;durP2;ratioP2;P2;SDS_P1;SDS_P2;PMS_P1;PMS_P2;Temp;Humidity;BMP_temperature;BMP_pressure;BME280_temperature;BME280_humidity;BME280_pressure;Samples;Min_cycle;Max_cycle;Signal;HPM_P1;HPM_P2
2023/07/09 00:00:19;;;;;;;12.77;6.63;;;;;;;;;;5031794;28;25094;-72
2023/07/09 00:02:45;;;;;;;11.95;5.28;;;;;;;;;;5033498;28;25108;-70
2023/07/09 00:05:12;;;;;;;12.98;6.22;;;;;;;;;;5027470;28;25098;-72
2023/07/09 00:07:39;;;;;;;10.30;5.53;;;;;;;;;;5037333;28;25074;-71
2023/07/09 00:10:06;;;;;;;9.60;5.63;;;;;;;;;;5023833;28;25069;-72
2023/07/09 00:12:32;;;;;;;17.05;6.85;;;;;;;;;;5029033;28;25058;-71
2023/07/09 00:14:58;;;;;;;13.70;7.93;;;;;;;;;;5019468;28;25044;-71
2023/07/09 00:17:30;;;;;;;15.48;7.47;;;;;;;;;;5037879;28;25125;-71
2023/07/09 00:19:57;;;;;;;22.58;8.45;;;;;;;;;;5029300;28;25049;-71
2023/07/09 00:22:23;;;;;;;14.98;7.82;;;;;;;;;;5021441;28;25108;-71
2023/07/09 00:24:50;;;;;;;10.43;6.72;;;;;;;;;;5023570;28;25096;-71
2023/07/09 00:27:21;;;;;;;12.15;6.70;;;;;;;;;;5034612;28;25054;-70
2023/07/09 00:29:47;;;;;;;13.65;7.45;;;;;;;;;;5049772;28;25100;-72
2023/07/09 00:32:16;;;;;;;19.05;6.47;;;;;;;;;;5019475;28;25110;-73
2023/07/09 00:34:48;;;;;;;11.45;6.47;;;;;;;;;;5022471;28;25052;-72
2023/07/09 00:37:15;;;;;;;16.58;6.60;;;;;;;;;;5031165;28;25104;-71
2023/07/09 00:39:41;;;;;;;12.13;6.38;;;;;;;;;;5033997;28;25141;-70
2023/07/09 00:42:25;;;;;;;11.18;6.90;;;;;;;;;;5038258;28;25056;-72
2023/07/09 00:44:52;;;;;;;15.73;6.07;;;;;;;;;;5032983;28;25087;-71
2023/07/09 00:47:24;;;;;;;16.17;6.30;;;;;;;;;;5027360;28;25121;-71
2023/07/09 00:49:50;;;;;;;;;;;;;;;;;;5030938;28;25068;-72
2023/07/09 00:52:33;;;;;;;10.70;6.13;;;;;;;;;;5021583;28;25065;-71
2023/07/09 00:55:03;;;;;;;9.82;6.35;;;;;;;;;;5052457;28;25050;-72
2023/07/09 00:57:29;;;;;;;12.13;6.53;;;;;;;;;;5051259;28;25069;-72
2023/07/09 00:59:58;;;;;;;9.45;6.13;;;;;;;;;;5040318;28;25072;-71
2023/07/09 01:02:24;;;;;;;7.78;5.75;;;;;;;;;;5035026;28;25049;-71
2023/07/09 01:04:52;;;;;;;11.07;6.70;;;;;;;;;;5027529;28;25075;-71
2023/07/09 01:07:19;;;;;;;13.50;6.43;;;;;;;;;;5043414;28;25060;-71
2023/07/09 01:09:45;;;;;;;9.52;6.63;;;;;;;;;;5034700;28;25072;-71
2023/07/09 01:12:12;;;;;;;13.07;7.22;;;;;;;;;;5046617;28;25078;-72
2023/07/09 01:14:38;;;;;;;13.15;5.82;;;;;;;;;;5065820;28;25048;-71
2023/07/09 01:17:07;;;;;;;16.60;6.80;;;;;;;;;;5043945;28;25062;-72
2023/07/09 01:19:43;;;;;;;8.45;6.10;;;;;;;;;;5044965;28;25066;-71
2023/07/09 01:22:11;;;;;;;13.80;6.15;;;;;;;;;;5040474;28;25050;-72
2023/07/09 01:24:52;;;;;;;14.73;6.80;;;;;;;;;;5047077;28;25042;-71
2023/07/09 01:27:20;;;;;;;10.37;5.63;;;;;;;;;;5044410;28;25080;-71
2023/07/09 01:29:48;;;;;;;12.02;6.20;;;;;;;;;;5039409;28;25056;-71
2023/07/09 01:32:15;;;;;;;11.07;5.75;;;;;;;;;;5028863;28;25135;-72
2023/07/09 01:34:41;;;;;;;11.15;6.35;;;;;;;;;;5018198;28;25092;-71
2023/07/09 01:37:07;;;;;;;15.02;5.97;;;;;;;;;;5024486;28;25109;-72
2023/07/09 01:39:33;;;;;;;13.95;6.60;;;;;;;;;;5026642;28;25055;-72
2023/07/09 01:41:59;;;;;;;14.18;6.88;;;;;;;;;;5023188;28;25167;-72
2023/07/09 01:44:29;;;;;;;13.90;6.85;;;;;;;;;;5023368;28;25057;-72
2023/07/09 01:46:55;;;;;;;11.70;5.95;;;;;;;;;;5018356;28;25065;-71
2023/07/09 01:49:21;;;;;;;9.52;6.13;;;;;;;;;;5020853;28;25076;-71
2023/07/09 01:51:49;;;;;;;11.52;6.32;;;;;;;;;;5019287;28;25080;-71
2023/07/09 01:54:17;;;;;;;12.95;6.35;;;;;;;;;;5014557;28;25157;-71
2023/07/09 01:56:43;;;;;;;12.63;6.20;;;;;;;;;;5018125;28;25065;-71
2023/07/09 01:59:10;;;;;;;15.27;6.25;;;;;;;;;;5016690;28;25067;-71
2023/07/09 02:01:38;;;;;;;11.98;6.10;;;;;;;;;;5023157;28;25085;-71
2023/07/09 02:04:04;;;;;;;10.57;6.55;;;;;;;;;;5018621;28;25070;-71
2023/07/09 02:06:33;;;;;;;12.95;6.28;;;;;;;;;;5017964;28;25080;-73
2023/07/09 02:08:59;;;;;;;9.95;6.63;;;;;;;;;;5021091;28;25086;-73
2023/07/09 02:11:25;;;;;;;9.68;6.40;;;;;;;;;;5024451;28;25114;-71
2023/07/09 02:13:51;;;;;;;14.73;7.28;;;;;;;;;;5027583;28;25080;-72
2023/07/09 02:16:17;;;;;;;12.90;6.20;;;;;;;;;;5037240;28;25103;-70
2023/07/09 02:18:43;;;;;;;10.38;6.47;;;;;;;;;;5024598;28;25144;-71
2023/07/09 02:21:09;;;;;;;13.23;6.47;;;;;;;;;;5039683;28;25183;-72
2023/07/09 02:23:35;;;;;;;12.23;5.75;;;;;;;;;;5031556;28;25065;-72
2023/07/09 02:26:00;;;;;;;11.13;7.35;;;;;;;;;;5016070;28;25098;-71
2023/07/09 02:28:27;;;;;;;11.43;5.80;;;;;;;;;;5022997;28;25056;-72
2023/07/09 02:30:53;;;;;;;12.63;6.57;;;;;;;;;;5026373;28;25068;-72
2023/07/09 02:33:20;;;;;;;11.07;6.25;;;;;;;;;;5018510;28;25154;-72
2023/07/09 02:35:46;;;;;;;13.80;8.10;;;;;;;;;;5024382;28;25136;-72
2023/07/09 02:38:12;;;;;;;11.90;6.13;;;;;;;;;;5019899;28;25046;-72
2023/07/09 02:40:39;;;;;;;11.20;6.78;;;;;;;;;;5019338;28;25073;-71
2023/07/09 02:43:05;;;;;;;11.60;6.45;;;;;;;;;;5017979;28;25074;-70
2023/07/09 02:45:31;;;;;;;11.82;6.70;;;;;;;;;;5014404;28;25048;-71
2023/07/09 02:47:57;;;;;;;10.98;7.38;;;;;;;;;;5034288;28;25075;-69
2023/07/09 02:50:23;;;;;;;11.23;6.65;;;;;;;;;;5030329;28;25133;-70
2023/07/09 02:52:49;;;;;;;9.50;6.30;;;;;;;;;;5022573;28;25076;-71
2023/07/09 02:55:15;;;;;;;12.98;6.45;;;;;;;;;;5029195;28;25064;-72
2023/07/09 02:57:41;;;;;;;13.43;6.30;;;;;;;;;;5030974;28;25095;-70
2023/07/09 03:00:07;;;;;;;12.98;6.22;;;;;;;;;;5040741;28;25071;-71
2023/07/09 03:02:34;;;;;;;10.38;6.60;;;;;;;;;;5040032;28;25067;-71
2023/07/09 03:05:00;;;;;;;10.05;6.40;;;;;;;;;;5030849;28;25116;-71
2023/07/09 03:07:26;;;;;;;12.98;6.53;;;;;;;;;;5035791;28;25106;-71
2023/07/09 03:09:52;;;;;;;9.63;6.50;;;;;;;;;;5034856;28;25079;-71
2023/07/09 03:12:18;;;;;;;11.88;6.38;;;;;;;;;;5047596;28;25066;-72
2023/07/09 03:14:47;;;;;;;12.43;6.93;;;;;;;;;;5042229;28;25076;-72
2023/07/09 03:17:13;;;;;;;15.40;7.80;;;;;;;;;;5038876;28;25058;-71
2023/07/09 03:19:39;;;;;;;14.75;6.63;;;;;;;;;;5045432;28;25071;-72
2023/07/09 03:22:05;;;;;;;10.13;6.40;;;;;;;;;;5046147;28;25078;-71
2023/07/09 03:24:31;;;;;;;15.43;6.05;;;;;;;;;;5023897;28;25068;-72
2023/07/09 03:26:57;;;;;;;10.23;5.55;;;;;;;;;;5033974;28;25066;-72
2023/07/09 03:29:23;;;;;;;9.00;5.63;;;;;;;;;;5035319;28;25076;-72
2023/07/09 03:31:49;;;;;;;15.27;7.03;;;;;;;;;;5024495;28;25061;-71
2023/07/09 03:34:15;;;;;;;12.38;6.30;;;;;;;;;;5025553;28;25089;-73
2023/07/09 03:36:41;;;;;;;14.88;6.65;;;;;;;;;;5027112;28;25080;-72
2023/07/09 03:39:07;;;;;;;12.48;6.90;;;;;;;;;;5024824;28;25059;-72
2023/07/09 03:41:34;;;;;;;8.70;5.75;;;;;;;;;;5023623;28;25098;-72
2023/07/09 03:44:00;;;;;;;12.80;6.50;;;;;;;;;;5024888;28;25046;-72
2023/07/09 03:46:26;;;;;;;9.70;5.75;;;;;;;;;;5008754;28;25067;-72
2023/07/09 03:48:52;;;;;;;12.05;6.80;;;;;;;;;;5018854;28;25072;-71
2023/07/09 03:51:18;;;;;;;11.18;6.63;;;;;;;;;;5035893;28;25072;-71
2023/07/09 03:53:44;;;;;;;10.65;6.20;;;;;;;;;;5036094;28;25138;-71
2023/07/09 03:56:10;;;;;;;12.15;6.60;;;;;;;;;;5028843;28;25084;-70
2023/07/09 03:58:36;;;;;;;9.50;6.10;;;;;;;;;;5023611;28;25058;-72
2023/07/09 04:01:02;;;;;;;12.93;6.60;;;;;;;;;;5024966;28;25074;-71
2023/07/09 04:03:28;;;;;;;10.23;5.72;;;;;;;;;;5021804;28;25056;-72
2023/07/09 04:05:54;;;;;;;10.40;5.40;;;;;;;;;;5024326;28;25086;-71
2023/07/09 04:08:20;;;;;;;9.85;5.88;;;;;;;;;;5023171;28;25070;-71
2023/07/09 04:10:46;;;;;;;8.85;6.03;;;;;;;;;;5030037;28;25050;-70
2023/07/09 04:13:12;;;;;;;9.95;6.43;;;;;;;;;;5026479;28;25146;-72
2023/07/09 04:15:38;;;;;;;11.45;6.75;;;;;;;;;;5034989;28;25066;-72
2023/07/09 04:18:04;;;;;;;10.85;5.88;;;;;;;;;;5026179;28;25071;-72
2023/07/09 04:20:30;;;;;;;11.60;6.32;;;;;;;;;;5020634;28;25094;-72
2023/07/09 04:22:56;;;;;;;13.43;6.97;;;;;;;;;;5025966;28;25093;-71
2023/07/09 04:25:22;;;;;;;9.50;5.68;;;;;;;;;;5031986;28;25069;-72
2023/07/09 04:27:50;;;;;;;11.30;6.10;;;;;;;;;;5021926;28;25067;-70
2023/07/09 04:30:16;;;;;;;10.60;6.45;;;;;;;;;;5031370;28;25123;-72
2023/07/09 04:32:45;;;;;;;12.15;6.38;;;;;;;;;;5025908;28;25070;-72
2023/07/09 04:35:12;;;;;;;11.65;8.20;;;;;;;;;;5042341;28;25077;-71
2023/07/09 04:37:39;;;;;;;15.38;8.02;;;;;;;;;;5035078;28;25064;-72
2023/07/09 04:40:06;;;;;;;13.85;6.95;;;;;;;;;;5037370;28;25067;-72
2023/07/09 04:42:33;;;;;;;13.43;7.13;;;;;;;;;;5025636;28;25073;-72
2023/07/09 04:44:59;;;;;;;11.85;6.82;;;;;;;;;;5030574;28;25070;-71
2023/07/09 04:47:25;;;;;;;11.77;6.82;;;;;;;;;;5025354;28;25152;-72
2023/07/09 04:49:51;;;;;;;13.50;7.20;;;;;;;;;;5033716;28;25071;-72
2023/07/09 04:52:17;;;;;;;11.55;6.25;;;;;;;;;;5030984;28;25051;-72
2023/07/09 04:54:46;;;;;;;13.52;7.03;;;;;;;;;;5023419;28;25046;-72
2023/07/09 04:57:12;;;;;;;12.52;7.68;;;;;;;;;;5029057;28;25073;-72
2023/07/09 04:59:38;;;;;;;12.77;7.00;;;;;;;;;;5024042;28;25076;-72
2023/07/09 05:02:04;;;;;;;17.60;7.95;;;;;;;;;;5015884;28;25146;-73
2023/07/09 05:04:31;;;;;;;11.90;7.40;;;;;;;;;;5025374;28;25049;-74
2023/07/09 05:06:57;;;;;;;13.75;7.18;;;;;;;;;;5040704;28;25143;-72
2023/07/09 05:09:24;;;;;;;17.15;7.60;;;;;;;;;;5026263;28;25142;-72
2023/07/09 05:11:50;;;;;;;12.25;7.95;;;;;;;;;;5027665;28;25079;-71
2023/07/09 05:14:16;;;;;;;10.20;7.03;;;;;;;;;;5030076;28;25071;-73
2023/07/09 05:16:43;;;;;;;12.40;7.05;;;;;;;;;;5032345;28;25103;-73
2023/07/09 05:19:09;;;;;;;16.40;8.52;;;;;;;;;;5035948;28;25157;-70
2023/07/09 05:21:35;;;;;;;11.88;6.82;;;;;;;;;;5050155;28;25085;-72
2023/07/09 05:24:01;;;;;;;11.65;7.18;;;;;;;;;;5042761;28;25107;-73
2023/07/09 05:26:27;;;;;;;14.20;7.72;;;;;;;;;;5031906;28;25067;-73
2023/07/09 05:28:53;;;;;;;12.85;7.65;;;;;;;;;;5028383;28;25076;-72
2023/07/09 05:31:19;;;;;;;13.57;8.30;;;;;;;;;;5024641;28;25085;-72
2023/07/09 05:33:45;;;;;;;14.57;7.65;;;;;;;;;;5041771;28;25061;-70
2023/07/09 05:36:15;;;;;;;11.05;8.13;;;;;;;;;;5040593;28;25055;-73
2023/07/09 05:38:41;;;;;;;12.77;8.18;;;;;;;;;;5035042;28;25063;-72
2023/07/09 05:41:07;;;;;;;14.05;8.63;;;;;;;;;;5021264;28;25067;-72
2023/07/09 05:43:33;;;;;;;14.98;8.18;;;;;;;;;;5037128;28;25065;-72
2023/07/09 05:46:01;;;;;;;12.57;8.52;;;;;;;;;;5057463;28;25145;-72
2023/07/09 05:48:27;;;;;;;14.02;10.32;;;;;;;;;;5034602;28;25029;-71
2023/07/09 05:50:57;;;;;;;11.40;8.82;;;;;;;;;;5024853;28;25061;-72
2023/07/09 05:53:24;;;;;;;12.77;9.60;;;;;;;;;;5033604;28;25131;-72
2023/07/09 05:55:53;;;;;;;13.18;9.20;;;;;;;;;;5028228;28;25156;-74
2023/07/09 05:58:19;;;;;;;14.73;9.02;;;;;;;;;;5034705;28;25070;-71
2023/07/09 06:00:45;;;;;;;13.68;9.13;;;;;;;;;;5027078;28;25143;-74
2023/07/09 06:03:10;;;;;;;16.23;9.13;;;;;;;;;;5040969;28;25068;-73
2023/07/09 06:05:36;;;;;;;15.48;8.98;;;;;;;;;;5039470;28;25075;-74
2023/07/09 06:08:04;;;;;;;15.68;9.10;;;;;;;;;;5028804;28;25065;-73
2023/07/09 06:10:30;;;;;;;16.90;9.48;;;;;;;;;;5025226;28;25090;-73
2023/07/09 06:12:58;;;;;;;17.98;9.45;;;;;;;;;;5025010;28;25064;-73
2023/07/09 06:15:24;;;;;;;12.18;8.45;;;;;;;;;;5047986;28;25054;-73
2023/07/09 06:17:50;;;;;;;14.30;9.48;;;;;;;;;;5050679;28;25058;-72
2023/07/09 06:20:16;;;;;;;15.43;8.32;;;;;;;;;;5035211;28;25065;-73
2023/07/09 06:22:42;;;;;;;15.55;8.40;;;;;;;;;;5027452;28;25075;-76
2023/07/09 06:25:08;;;;;;;13.25;8.63;;;;;;;;;;5027116;28;25094;-72
2023/07/09 06:27:34;;;;;;;13.50;8.07;;;;;;;;;;5025085;28;25054;-73
2023/07/09 06:30:00;;;;;;;19.42;8.70;;;;;;;;;;5022348;28;25064;-75
2023/07/09 06:32:26;;;;;;;14.80;8.35;;;;;;;;;;5028802;28;25064;-73
2023/07/09 06:34:52;;;;;;;16.15;9.95;;;;;;;;;;5039125;28;25091;-72
2023/07/09 06:37:18;;;;;;;14.80;9.02;;;;;;;;;;5038849;28;25062;-71
2023/07/09 06:39:44;;;;;;;15.45;8.50;;;;;;;;;;5028663;28;25050;-72
2023/07/09 06:42:10;;;;;;;11.45;8.30;;;;;;;;;;5045263;28;25051;-74
2023/07/09 06:44:36;;;;;;;9.77;7.22;;;;;;;;;;5045134;28;25120;-75
2023/07/09 06:47:02;;;;;;;13.90;7.93;;;;;;;;;;5041972;28;25052;-77
2023/07/09 06:49:28;;;;;;;17.67;9.48;;;;;;;;;;5026736;28;25072;-73
2023/07/09 06:51:54;;;;;;;14.15;9.15;;;;;;;;;;5026768;28;25058;-73
2023/07/09 06:54:20;;;;;;;12.57;8.77;;;;;;;;;;5038489;28;25103;-72
2023/07/09 06:56:47;;;;;;;16.80;9.23;;;;;;;;;;5023784;28;25070;-75
2023/07/09 06:59:13;;;;;;;12.68;8.90;;;;;;;;;;5029279;28;25146;-73
2023/07/09 07:01:39;;;;;;;18.05;9.52;;;;;;;;;;5034956;28;25073;-74
2023/07/09 07:04:05;;;;;;;16.23;10.05;;;;;;;;;;5050621;28;25065;-75
2023/07/09 07:06:31;;;;;;;15.48;10.40;;;;;;;;;;5047470;28;25066;-75
2023/07/09 07:08:57;;;;;;;18.00;11.13;;;;;;;;;;5058905;28;25086;-75
2023/07/09 07:11:23;;;;;;;16.10;10.23;;;;;;;;;;5036089;28;25097;-76
2023/07/09 07:13:51;;;;;;;14.50;8.85;;;;;;;;;;5025859;28;25172;-76
2023/07/09 07:16:17;;;;;;;20.15;11.35;;;;;;;;;;5021701;28;25065;-75
2023/07/09 07:18:43;;;;;;;20.65;10.68;;;;;;;;;;5020881;28;25164;-77
2023/07/09 07:21:09;;;;;;;18.35;11.00;;;;;;;;;;5021614;28;25075;-76
2023/07/09 07:23:36;;;;;;;18.65;10.43;;;;;;;;;;5026574;28;25053;-75
2023/07/09 07:26:03;;;;;;;19.95;11.27;;;;;;;;;;5037456;28;25073;-71
2023/07/09 07:28:29;;;;;;;23.70;13.48;;;;;;;;;;5025826;28;25109;-74
2023/07/09 07:30:59;;;;;;;21.85;12.35;;;;;;;;;;5034152;28;25109;-75
2023/07/09 07:33:25;;;;;;;22.83;14.18;;;;;;;;;;5034800;28;25056;-74
2023/07/09 07:35:51;;;;;;;23.02;15.35;;;;;;;;;;5032613;28;25144;-72
2023/07/09 07:38:17;;;;;;;26.65;17.48;;;;;;;;;;5026433;28;25094;-73
2023/07/09 07:40:46;;;;;;;28.35;16.05;;;;;;;;;;5041024;28;25084;-74
2023/07/09 07:43:12;;;;;;;23.00;16.05;;;;;;;;;;5033078;28;25054;-77
2023/07/09 07:45:42;;;;;;;29.25;17.40;;;;;;;;;;5048077;28;25069;-76
2023/07/09 07:48:08;;;;;;;27.17;18.45;;;;;;;;;;5049883;28;25058;-73
2023/07/09 07:50:34;;;;;;;26.17;18.70;;;;;;;;;;5050722;28;25062;-76
2023/07/09 07:53:00;;;;;;;26.13;18.00;;;;;;;;;;5037702;28;25114;-74
2023/07/09 07:55:25;;;;;;;32.88;19.80;;;;;;;;;;5056007;28;25077;-76
2023/07/09 07:57:52;;;;;;;27.35;18.85;;;;;;;;;;5054356;28;25068;-76
2023/07/09 08:00:18;;;;;;;25.30;16.90;;;;;;;;;;5055406;28;25089;-80
2023/07/09 08:02:44;;;;;;;23.90;16.45;;;;;;;;;;5058274;28;25064;-78
2023/07/09 08:05:10;;;;;;;25.08;17.15;;;;;;;;;;5044977;28;25061;-77
2023/07/09 08:07:36;;;;;;;30.20;18.08;;;;;;;;;;5041718;28;25056;-79
2023/07/09 08:10:02;;;;;;;23.20;16.27;;;;;;;;;;5047412;28;25069;-77
2023/07/09 08:12:28;;;;;;;31.05;17.77;;;;;;;;;;5043710;28;25054;-74
2023/07/09 08:14:54;;;;;;;26.33;18.63;;;;;;;;;;5037067;28;25142;-76
2023/07/09 08:17:20;;;;;;;28.80;19.63;;;;;;;;;;5036428;28;25120;-76
2023/07/09 08:19:47;;;;;;;30.77;21.23;;;;;;;;;;5040555;28;25066;-72
2023/07/09 08:22:13;;;;;;;35.10;21.73;;;;;;;;;;5041189;28;25044;-74
2023/07/09 08:24:39;;;;;;;26.02;18.30;;;;;;;;;;5059211;28;25073;-77
2023/07/09 08:27:07;;;;;;;24.75;16.27;;;;;;;;;;5028774;28;25094;-76
2023/07/09 08:29:33;;;;;;;22.10;15.45;;;;;;;;;;5023495;28;25059;-75
2023/07/09 08:31:59;;;;;;;18.95;12.93;;;;;;;;;;5025541;28;25112;-75
2023/07/09 08:34:25;;;;;;;27.08;14.77;;;;;;;;;;5029731;28;25150;-74
2023/07/09 08:36:51;;;;;;;18.67;13.25;;;;;;;;;;5025335;28;25090;-76
2023/07/09 08:39:17;;;;;;;18.52;13.90;;;;;;;;;;5028678;28;25061;-76
2023/07/09 08:41:50;;;;;;;22.98;13.40;;;;;;;;;;5026140;28;25148;-77
2023/07/09 08:44:25;;;;;;;24.42;14.93;;;;;;;;;;5029473;28;25066;-74
2023/07/09 08:47:00;;;;;;;26.52;14.63;;;;;;;;;;5026022;28;25084;-76
2023/07/09 08:49:38;;;;;;;22.27;14.40;;;;;;;;;;5035627;28;25098;-76
2023/07/09 08:52:11;;;;;;;21.63;13.93;;;;;;;;;;5034484;28;25068;-76
2023/07/09 08:54:37;;;;;;;22.88;12.80;;;;;;;;;;5025535;28;25116;-78
2023/07/09 08:57:10;;;;;;;21.27;13.15;;;;;;;;;;5021651;28;25058;-77
2023/07/09 08:59:37;;;;;;;18.00;13.00;;;;;;;;;;5030170;28;25132;-76
2023/07/09 09:02:04;;;;;;;19.67;14.38;;;;;;;;;;5028420;28;25075;-75
2023/07/09 09:04:31;;;;;;;23.98;13.23;;;;;;;;;;5028885;28;25079;-76
2023/07/09 09:07:09;;;;;;;17.92;12.88;;;;;;;;;;5020451;28;25082;-76
2023/07/09 09:09:39;;;;;;;19.27;12.18;;;;;;;;;;5028808;28;25062;-77
2023/07/09 09:12:17;;;;;;;16.50;11.15;;;;;;;;;;5037275;28;25133;-77
2023/07/09 09:14:44;;;;;;;13.27;9.85;;;;;;;;;;5026281;28;25136;-80
2023/07/09 09:17:20;;;;;;;17.33;10.55;;;;;;;;;;5027013;28;25063;-75
2023/07/09 09:20:07;;;;;;;17.60;10.50;;;;;;;;;;5022300;28;25064;-77
2023/07/09 09:22:53;;;;;;;16.02;9.93;;;;;;;;;;5027538;28;25152;-76
2023/07/09 09:25:30;;;;;;;14.52;9.50;;;;;;;;;;5027903;28;25065;-77
2023/07/09 09:27:56;;;;;;;15.68;8.65;;;;;;;;;;5032898;28;25138;-76
2023/07/09 09:30:23;;;;;;;15.32;9.63;;;;;;;;;;5025889;28;25054;-77
2023/07/09 09:32:52;;;;;;;16.83;8.60;;;;;;;;;;5023598;28;25068;-77
2023/07/09 09:35:20;;;;;;;13.98;9.23;;;;;;;;;;5026197;28;25068;-80
2023/07/09 09:37:54;;;;;;;15.50;9.75;;;;;;;;;;5025591;28;25088;-79
2023/07/09 09:40:24;;;;;;;10.98;8.07;;;;;;;;;;5032075;28;25066;-76
2023/07/09 09:42:50;;;;;;;14.70;9.55;;;;;;;;;;5019744;28;25076;-77
2023/07/09 09:45:18;;;;;;;15.60;9.18;;;;;;;;;;5047041;28;25153;-78
2023/07/09 09:47:45;;;;;;;17.70;11.25;;;;;;;;;;5051664;28;25065;-76
2023/07/09 09:50:19;;;;;;;32.67;11.02;;;;;;;;;;5037403;28;25059;-76
2023/07/09 09:52:45;;;;;;;14.98;9.10;;;;;;;;;;5023072;28;25110;-77
2023/07/09 09:55:16;;;;;;;17.08;8.85;;;;;;;;;;5031205;28;25055;-76
2023/07/09 09:57:47;;;;;;;16.13;9.95;;;;;;;;;;5030176;28;25067;-77
2023/07/09 10:00:16;;;;;;;18.88;10.18;;;;;;;;;;5024132;28;25068;-79
2023/07/09 10:02:42;;;;;;;15.15;10.80;;;;;;;;;;5041996;28;25065;-75
2023/07/09 10:05:14;;;;;;;18.75;10.70;;;;;;;;;;5037132;28;25082;-76
2023/07/09 10:07:44;;;;;;;14.10;9.77;;;;;;;;;;5028222;28;25067;-75
2023/07/09 10:10:14;;;;;;;10.95;8.20;;;;;;;;;;5023655;28;25074;-78
2023/07/09 10:12:53;;;;;;;10.85;7.63;;;;;;;;;;5022665;28;25051;-78
2023/07/09 10:15:31;;;;;;;16.70;11.90;;;;;;;;;;5022109;28;25079;-75
2023/07/09 10:18:08;;;;;;;15.15;10.32;;;;;;;;;;5024319;28;25060;-74
2023/07/09 10:20:38;;;;;;;17.52;10.23;;;;;;;;;;5033588;28;25060;-74
2023/07/09 10:23:13;;;;;;;16.48;9.18;;;;;;;;;;5018157;28;25091;-77
2023/07/09 10:26:02;;;;;;;15.90;9.00;;;;;;;;;;5022263;28;25065;-76
2023/07/09 10:28:43;;;;;;;14.32;8.98;;;;;;;;;;5015296;28;25079;-76
2023/07/09 10:31:16;;;;;;;13.10;8.03;;;;;;;;;;5020148;28;25057;-75
2023/07/09 10:33:48;;;;;;;16.42;9.18;;;;;;;;;;5043199;28;25075;-78
2023/07/09 10:36:30;;;;;;;12.38;8.27;;;;;;;;;;5046307;28;25162;-76
2023/07/09 10:39:15;;;;;;;19.05;11.82;;;;;;;;;;5047980;28;25133;-74
2023/07/09 10:41:41;;;;;;;19.48;13.02;;;;;;;;;;5048262;28;25062;-76
2023/07/09 10:44:14;;;;;;;19.50;13.45;;;;;;;;;;5050051;28;25061;-77
2023/07/09 10:46:43;;;;;;;21.98;12.52;;;;;;;;;;5041839;28;25152;-75
2023/07/09 10:49:14;;;;;;;20.50;11.88;;;;;;;;;;5051655;28;25059;-77
2023/07/09 10:51:51;;;;;;;19.52;12.02;;;;;;;;;;5024148;28;25064;-77
2023/07/09 10:54:30;;;;;;;16.95;10.65;;;;;;;;;;5040633;28;25064;-78
2023/07/09 10:56:58;;;;;;;18.33;11.90;;;;;;;;;;5043590;28;25064;-77
2023/07/09 10:59:36;;;;;;;16.70;9.95;;;;;;;;;;5031791;28;25076;-80
2023/07/09 11:02:20;;;;;;;16.17;10.75;;;;;;;;;;5027425;28;25075;-77
2023/07/09 11:04:52;;;;;;;16.83;11.50;;;;;;;;;;5024428;28;25060;-75
2023/07/09 11:07:21;;;;;;;16.75;8.82;;;;;;;;;;5029414;28;25058;-76
2023/07/09 11:09:49;;;;;;;19.80;10.20;;;;;;;;;;5035733;28;25062;-80
2023/07/09 11:12:22;;;;;;;15.65;9.75;;;;;;;;;;5033952;28;25067;-78
2023/07/09 11:14:51;;;;;;;19.92;10.10;;;;;;;;;;5027893;28;25097;-77
2023/07/09 11:17:21;;;;;;;14.27;9.40;;;;;;;;;;5039190;28;25070;-79
2023/07/09 11:19:49;;;;;;;14.32;9.13;;;;;;;;;;5051806;28;25074;-79
2023/07/09 11:22:26;;;;;;;15.65;8.93;;;;;;;;;;5030084;28;25067;-79
2023/07/09 11:24:55;;;;;;;15.20;10.60;;;;;;;;;;5053865;28;25059;-78
2023/07/09 11:27:21;;;;;;;16.83;10.73;;;;;;;;;;5071473;28;25059;-78
2023/07/09 11:29:48;;;;;;;17.35;10.05;;;;;;;;;;5036382;28;25075;-78
2023/07/09 11:32:22;;;;;;;15.23;10.40;;;;;;;;;;5032550;28;25065;-79
2023/07/09 11:34:48;;;;;;;12.90;8.93;;;;;;;;;;5035012;28;25094;-80
2023/07/09 11:37:15;;;;;;;15.30;9.50;;;;;;;;;;5031287;28;25092;-76
2023/07/09 11:39:41;;;;;;;14.80;9.02;;;;;;;;;;5035771;28;25092;-76
2023/07/09 11:42:26;;;;;;;18.10;9.07;;;;;;;;;;5028421;28;25045;-78
2023/07/09 11:44:54;;;;;;;10.93;7.22;;;;;;;;;;5035828;28;25071;-77
2023/07/09 11:47:53;;;;;;;12.98;7.25;;;;;;;;;;5027173;28;25060;-77
2023/07/09 11:50:29;;;;;;;6.45;4.65;;;;;;;;;;4993321;28;25068;-77
2023/07/09 11:52:56;;;;;;;7.03;3.50;;;;;;;;;;5023015;28;25055;-73
2023/07/09 11:55:23;;;;;;;7.20;3.42;;;;;;;;;;5025462;28;25148;-77
2023/07/09 11:57:49;;;;;;;4.35;3.20;;;;;;;;;;5024851;28;25070;-74
2023/07/09 12:00:15;;;;;;;6.05;3.65;;;;;;;;;;5013216;28;25075;-75
2023/07/09 12:02:41;;;;;;;5.05;3.05;;;;;;;;;;5024352;28;25053;-78
2023/07/09 12:05:08;;;;;;;5.82;3.03;;;;;;;;;;5012995;28;25080;-75
2023/07/09 12:07:35;;;;;;;6.13;2.88;;;;;;;;;;5019358;28;25075;-77
2023/07/09 12:10:03;;;;;;;6.55;3.25;;;;;;;;;;5021934;28;25070;-76
2023/07/09 12:12:29;;;;;;;6.43;3.58;;;;;;;;;;5022167;28;25074;-75
2023/07/09 12:14:55;;;;;;;4.72;3.05;;;;;;;;;;5020099;28;25078;-76
2023/07/09 12:17:28;;;;;;;7.13;3.30;;;;;;;;;;5028091;28;25081;-75
2023/07/09 12:19:54;;;;;;;6.10;3.65;;;;;;;;;;5025096;28;25061;-75
2023/07/09 12:22:21;;;;;;;5.18;3.10;;;;;;;;;;5025010;28;25089;-76
2023/07/09 12:24:49;;;;;;;4.68;2.97;;;;;;;;;;5019494;28;25068;-73
2023/07/09 12:27:18;;;;;;;6.35;3.38;;;;;;;;;;5020737;28;25159;-76
2023/07/09 12:29:44;;;;;;;5.40;3.10;;;;;;;;;;5012544;28;25061;-76
2023/07/09 12:32:12;;;;;;;7.30;3.53;;;;;;;;;;5025256;28;25072;-78
2023/07/09 12:34:38;;;;;;;4.50;3.15;;;;;;;;;;5031307;28;25073;-75
2023/07/09 12:37:04;;;;;;;4.32;2.63;;;;;;;;;;5046544;28;25059;-75
2023/07/09 12:39:33;;;;;;;10.65;4.10;;;;;;;;;;5058567;28;25066;-78
2023/07/09 12:42:03;;;;;;;4.57;2.58;;;;;;;;;;5036527;28;25073;-77
2023/07/09 12:44:32;;;;;;;4.43;2.38;;;;;;;;;;5024051;28;25067;-75
2023/07/09 12:46:58;;;;;;;5.65;3.08;;;;;;;;;;5015857;28;25074;-74
2023/07/09 12:49:25;;;;;;;5.18;2.65;;;;;;;;;;5032790;28;25086;-75
2023/07/09 12:51:52;;;;;;;7.22;3.50;;;;;;;;;;5025163;28;25080;-73
2023/07/09 12:54:19;;;;;;;2.47;2.22;;;;;;;;;;5030607;28;25088;-77
2023/07/09 12:56:45;;;;;;;6.28;3.00;;;;;;;;;;5023268;28;25064;-77
2023/07/09 12:59:20;;;;;;;4.60;3.38;;;;;;;;;;5020219;28;25072;-74
2023/07/09 13:02:03;;;;;;;4.78;2.83;;;;;;;;;;5025841;28;25077;-77
2023/07/09 13:04:32;;;;;;;5.63;3.00;;;;;;;;;;5028036;28;25069;-78
2023/07/09 13:06:59;;;;;;;6.05;2.95;;;;;;;;;;5025539;28;25078;-78
2023/07/09 13:09:26;;;;;;;6.07;3.63;;;;;;;;;;5031034;28;25085;-78
2023/07/09 13:11:52;;;;;;;5.70;3.20;;;;;;;;;;5025435;28;25060;-78
2023/07/09 13:14:22;;;;;;;8.32;3.72;;;;;;;;;;5015373;28;25073;-77
2023/07/09 13:16:49;;;;;;;5.68;3.50;;;;;;;;;;5019831;28;25051;-76
2023/07/09 13:19:15;;;;;;;9.77;4.25;;;;;;;;;;5031174;28;25160;-76
2023/07/09 13:21:42;;;;;;;9.30;4.65;;;;;;;;;;5030223;28;25061;-76
2023/07/09 13:24:19;;;;;;;5.72;3.47;;;;;;;;;;5034993;28;25063;-76
2023/07/09 13:26:46;;;;;;;7.20;3.75;;;;;;;;;;5036071;28;25084;-76
2023/07/09 13:29:14;;;;;;;11.85;3.60;;;;;;;;;;5040622;28;25102;-78
2023/07/09 13:31:40;;;;;;;11.60;3.65;;;;;;;;;;5030582;28;25153;-75
2023/07/09 13:34:14;;;;;;;7.53;4.10;;;;;;;;;;5026323;28;25071;-75
2023/07/09 13:36:40;;;;;;;8.88;3.78;;;;;;;;;;5029660;28;25053;-74
2023/07/09 13:39:08;;;;;;;7.80;3.45;;;;;;;;;;5029496;28;25072;-78
2023/07/09 13:41:34;;;;;;;9.23;3.22;;;;;;;;;;5039270;28;25061;-76
2023/07/09 13:44:00;;;;;;;4.90;2.83;;;;;;;;;;5034991;28;25070;-76
2023/07/09 13:46:26;;;;;;;7.05;3.53;;;;;;;;;;5020761;28;25110;-74
2023/07/09 13:48:52;;;;;;;10.23;3.70;;;;;;;;;;5026055;28;25072;-76
2023/07/09 13:51:20;;;;;;;9.98;3.75;;;;;;;;;;5029177;28;25070;-76
2023/07/09 13:53:47;;;;;;;13.48;3.72;;;;;;;;;;5032971;28;25054;-75
2023/07/09 13:56:13;;;;;;;6.28;3.55;;;;;;;;;;5022062;28;25146;-80
2023/07/09 13:58:39;;;;;;;12.45;3.80;;;;;;;;;;5014782;28;25063;-77
2023/07/09 14:01:13;;;;;;;10.95;3.65;;;;;;;;;;5023752;28;25065;-73
2023/07/09 14:03:39;;;;;;;7.95;3.83;;;;;;;;;;5019489;28;25133;-76
2023/07/09 14:06:06;;;;;;;7.28;4.47;;;;;;;;;;5019727;28;25066;-76
2023/07/09 14:08:32;;;;;;;12.77;5.43;;;;;;;;;;5038716;28;25068;-74
2023/07/09 14:10:58;;;;;;;11.02;5.07;;;;;;;;;;5054133;28;25061;-75
2023/07/09 14:13:25;;;;;;;17.55;6.18;;;;;;;;;;5047107;28;25073;-75
2023/07/09 14:15:51;;;;;;;20.95;6.40;;;;;;;;;;5042015;28;25059;-76
2023/07/09 14:18:19;;;;;;;21.92;7.32;;;;;;;;;;5064079;28;25069;-76
2023/07/09 14:20:45;;;;;;;17.73;7.95;;;;;;;;;;5047144;28;25109;-77
2023/07/09 14:23:11;;;;;;;21.52;8.43;;;;;;;;;;5053101;28;25047;-76
2023/07/09 14:25:38;;;;;;;18.10;8.02;;;;;;;;;;5045992;28;25072;-73
2023/07/09 14:28:14;;;;;;;15.18;7.57;;;;;;;;;;5044512;28;25112;-76
2023/07/09 14:30:41;;;;;;;21.50;9.60;;;;;;;;;;5045530;28;25048;-76
2023/07/09 14:33:12;;;;;;;22.20;10.43;;;;;;;;;;5044340;28;25067;-75
2023/07/09 14:35:38;;;;;;;26.63;10.02;;;;;;;;;;5035520;28;25072;-77